createdAt,value
2023-03-22T00:02:05.117Z,86.30
2023-03-22T00:07:13.905Z,86.50
2023-03-22T00:12:23.422Z,86.10
2023-03-22T00:17:33.146Z,86.60
2023-03-22T00:22:42.976Z,86.60
2023-03-22T00:27:51.711Z,86.70
2023-03-22T00:33:00.258Z,87.00
2023-03-22T00:38:12.669Z,86.80
2023-03-22T00:43:12.179Z,86.60
2023-03-22T00:48:22.304Z,86.40
2023-03-22T00:53:20.381Z,87.10
2023-03-22T00:58:30.217Z,87.00
2023-03-22T01:03:38.918Z,86.60
2023-03-22T01:08:47.415Z,86.80
2023-03-22T01:13:57.296Z,86.80
2023-03-22T01:19:06.809Z,87.90
2023-03-22T01:24:15.090Z,88.40
2023-03-22T01:29:24.789Z,88.20
2023-03-22T01:34:33.916Z,88.00
2023-03-22T01:39:44.149Z,87.90
2023-03-22T01:44:43.168Z,87.90
2023-03-22T01:49:52.946Z,89.50
2023-03-22T01:55:01.336Z,89.40
2023-03-22T02:00:12.634Z,89.40
2023-03-22T02:05:11.828Z,88.90
2023-03-22T02:10:20.859Z,88.80
2023-03-22T02:15:29.251Z,88.50
2023-03-22T02:20:38.781Z,88.50
2023-03-22T02:25:46.539Z,88.40
2023-03-22T02:30:54.831Z,88.20
2023-03-22T02:36:03.190Z,88.10
2023-03-22T02:41:13.820Z,88.00
2023-03-22T02:46:12.102Z,88.10
2023-03-22T02:51:22.083Z,89.00
2023-03-22T02:56:21.997Z,89.00
2023-03-22T03:01:31.916Z,88.80
2023-03-22T03:06:41.654Z,89.00
2023-03-22T03:11:53.387Z,88.80
2023-03-22T03:16:52.552Z,88.70
2023-03-22T03:22:00.835Z,88.60
2023-03-22T03:27:11.888Z,88.50
2023-03-22T03:32:12.396Z,89.00
2023-03-22T03:37:11.147Z,89.80
2023-03-22T03:42:20.147Z,90.10
2023-03-22T03:47:29.001Z,90.10
2023-03-22T03:52:37.795Z,90.10
2023-03-22T03:57:45.719Z,90.10
2023-03-22T04:02:55.431Z,89.80
2023-03-22T04:08:03.410Z,89.60
2023-03-22T04:13:16.117Z,89.80
2023-03-22T04:18:17.013Z,89.40
2023-03-22T04:23:18.629Z,89.30
2023-03-22T04:28:18.376Z,89.30
2023-03-22T04:33:27.407Z,89.50
2023-03-22T04:38:36.273Z,89.30
2023-03-22T04:43:46.176Z,89.50
2023-03-22T04:48:47.318Z,89.50
2023-03-22T04:53:56.039Z,89.40
2023-03-22T04:59:06.239Z,89.80
2023-03-22T05:04:05.904Z,90.00
2023-03-22T05:09:14.213Z,90.20
2023-03-22T05:14:23.758Z,90.20
2023-03-22T05:19:34.355Z,90.20
2023-03-22T05:24:28.859Z,90.20
2023-03-22T05:29:39.100Z,90.20
2023-03-22T05:34:37.541Z,90.50
2023-03-22T05:39:48.040Z,90.30
2023-03-22T05:44:47.477Z,90.30
2023-03-22T05:49:55.494Z,90.10
2023-03-22T05:55:05.167Z,90.10
2023-03-22T06:00:15.603Z,90.20
2023-03-22T06:05:15.035Z,90.10
2023-03-22T06:10:16.564Z,90.10
2023-03-22T06:15:26.547Z,90.10
2023-03-22T06:20:35.997Z,90.30
2023-03-22T06:25:46.828Z,90.30
2023-03-22T06:30:50.097Z,90.40
2023-03-22T06:35:50.182Z,90.40
2023-03-22T06:40:48.401Z,90.10
2023-03-22T06:45:57.475Z,90.20
2023-03-22T06:51:05.530Z,90.10
2023-03-22T06:56:15.633Z,90.00
2023-03-22T07:01:16.369Z,90.10
2023-03-22T07:06:15.858Z,90.00
2023-03-22T07:11:25.553Z,88.70
2023-03-22T07:16:34.108Z,88.80
2023-03-22T07:21:42.404Z,88.70
2023-03-22T07:26:53.511Z,88.40
2023-03-22T07:31:53.018Z,87.70
2023-03-22T07:37:03.601Z,88.10
2023-03-22T07:42:01.748Z,87.80
2023-03-22T07:47:11.760Z,86.70
2023-03-22T07:52:10.688Z,86.70
2023-03-22T07:57:15.629Z,86.20
2023-03-22T08:02:25.015Z,85.50
2023-03-22T08:07:33.564Z,85.70
2023-03-22T08:12:42.265Z,85.80
2023-03-22T08:17:50.750Z,85.10
2023-03-22T08:23:01.783Z,84.40
2023-03-22T08:28:02.030Z,82.80
2023-03-22T08:33:01.886Z,81.40
2023-03-22T08:38:12.881Z,81.70
2023-03-22T08:43:12.439Z,79.40
2023-03-22T08:48:21.863Z,76.20
2023-03-22T08:53:32.888Z,77.30
2023-03-22T08:58:32.726Z,72.80
2023-03-22T09:03:41.375Z,69.70
2023-03-22T09:08:50.906Z,68.50
2023-03-22T09:14:00.018Z,66.40
2023-03-22T09:19:10.352Z,66.00
2023-03-22T09:24:09.926Z,63.40
2023-03-22T09:29:19.875Z,62.90
2023-03-22T09:34:28.821Z,61.80
2023-03-22T09:39:37.452Z,63.20
2023-03-22T09:44:45.846Z,60.10
2023-03-22T09:49:56.081Z,60.30
2023-03-22T09:54:55.543Z,59.60
2023-03-22T10:00:04.295Z,59.30
2023-03-22T10:05:14.250Z,59.10
2023-03-22T10:10:23.566Z,58.80
2023-03-22T10:15:33.099Z,58.70
2023-03-22T10:20:44.065Z,57.60
2023-03-22T10:25:42.477Z,58.00
2023-03-22T10:30:52.425Z,58.30
2023-03-22T10:35:51.198Z,57.50
2023-03-22T10:41:00.775Z,58.30
2023-03-22T10:46:09.296Z,58.00
2023-03-22T10:51:20.187Z,57.20
2023-03-22T10:56:19.510Z,57.50
2023-03-22T11:01:29.864Z,57.50
2023-03-22T11:06:27.976Z,57.00
2023-03-22T11:11:36.489Z,57.40
2023-03-22T11:16:45.983Z,57.70
2023-03-22T11:21:54.716Z,57.80
2023-03-22T11:27:05.494Z,57.20
2023-03-22T11:32:04.836Z,56.80
2023-03-22T11:37:15.730Z,57.00
2023-03-22T11:42:23.688Z,57.50
2023-03-22T11:47:22.662Z,57.10
2023-03-22T11:52:31.398Z,56.80
2023-03-22T11:57:39.498Z,57.30
2023-03-22T12:02:48.932Z,56.20
2023-03-22T12:07:59.046Z,56.20
2023-03-22T12:12:57.759Z,56.40
2023-03-22T12:18:08.025Z,54.90
2023-03-22T12:23:14.895Z,56.00
2023-03-22T12:28:23.092Z,55.60
2023-03-22T12:33:33.421Z,55.90
2023-03-22T12:38:32.475Z,55.20
2023-03-22T12:43:41.591Z,54.30
2023-03-22T12:48:49.964Z,53.90
2023-03-22T12:54:00.504Z,54.60
2023-03-22T12:58:59.698Z,55.20
2023-03-22T13:04:08.821Z,55.80
2023-03-22T13:09:20.074Z,55.00
2023-03-22T13:14:19.930Z,55.70
2023-03-22T13:19:29.866Z,56.60
2023-03-22T13:24:41.640Z,56.50
2023-03-22T13:29:41.596Z,55.80
2023-03-22T13:34:52.277Z,56.10
2023-03-22T13:39:50.254Z,56.00
2023-03-22T13:44:59.295Z,56.50
2023-03-22T13:50:08.824Z,56.80
2023-03-22T13:55:20.303Z,57.50
2023-03-22T14:00:20.287Z,57.70
2023-03-22T14:05:26.871Z,57.30
2023-03-22T14:10:36.125Z,57.50
2023-03-22T14:15:46.711Z,57.80
2023-03-22T14:20:46.020Z,58.20
